sensor_id;sensor_type;location;lat;lon;timestamp;temperature;humidity
40758;DHT22;26462;47.384;19.218;2022-12-18T00:01:29;-1.00;99.90
40758;DHT22;26462;47.384;19.218;2022-12-18T00:03:58;-0.90;99.90
40758;DHT22;26462;47.384;19.218;2022-12-18T00:06:27;-0.90;99.90
40758;DHT22;26462;47.384;19.218;2022-12-18T00:08:57;-0.90;99.90
40758;DHT22;26462;47.384;19.218;2022-12-18T00:11:27;-0.90;99.90
40758;DHT22;26462;47.384;19.218;2022-12-18T00:13:56;-0.90;99.90
40758;DHT22;26462;47.384;19.218;2022-12-18T00:16:25;-0.90;99.90
40758;DHT22;26462;47.384;19.218;2022-12-18T00:18:55;-0.90;99.90
40758;DHT22;26462;47.384;19.218;2022-12-18T00:21:23;-0.90;99.90
40758;DHT22;26462;47.384;19.218;2022-12-18T00:23:51;-0.90;99.90
40758;DHT22;26462;47.384;19.218;2022-12-18T00:26:29;-0.90;99.90
40758;DHT22;26462;47.384;19.218;2022-12-18T00:29:01;-0.90;99.90
40758;DHT22;26462;47.384;19.218;2022-12-18T00:31:31;-0.90;99.90
40758;DHT22;26462;47.384;19.218;2022-12-18T00:34:00;-0.90;99.90
40758;DHT22;26462;47.384;19.218;2022-12-18T00:36:37;-0.90;99.90
40758;DHT22;26462;47.384;19.218;2022-12-18T00:39:05;-0.80;99.90
40758;DHT22;26462;47.384;19.218;2022-12-18T00:41:32;-0.80;99.90
40758;DHT22;26462;47.384;19.218;2022-12-18T00:44:18;-0.90;99.90
40758;DHT22;26462;47.384;19.218;2022-12-18T00:46:46;-0.90;99.90
40758;DHT22;26462;47.384;19.218;2022-12-18T00:49:16;-0.90;99.90
40758;DHT22;26462;47.384;19.218;2022-12-18T00:51:44;-0.90;99.90
40758;DHT22;26462;47.384;19.218;2022-12-18T00:54:11;-0.90;99.90
40758;DHT22;26462;47.384;19.218;2022-12-18T00:56:39;-0.90;99.90
40758;DHT22;26462;47.384;19.218;2022-12-18T00:59:14;-0.90;99.90
40758;DHT22;26462;47.384;19.218;2022-12-18T01:01:41;-0.90;99.90
40758;DHT22;26462;47.384;19.218;2022-12-18T01:04:09;-0.80;99.90
40758;DHT22;26462;47.384;19.218;2022-12-18T01:06:36;-0.80;99.90
40758;DHT22;26462;47.384;19.218;2022-12-18T01:09:03;-0.80;99.90
40758;DHT22;26462;47.384;19.218;2022-12-18T01:11:31;-0.80;99.90
40758;DHT22;26462;47.384;19.218;2022-12-18T01:13:58;-0.80;99.90
40758;DHT22;26462;47.384;19.218;2022-12-18T01:16:25;-0.80;99.90
40758;DHT22;26462;47.384;19.218;2022-12-18T01:18:53;-0.80;99.90
40758;DHT22;26462;47.384;19.218;2022-12-18T01:21:22;-0.80;99.90
40758;DHT22;26462;47.384;19.218;2022-12-18T01:23:55;-0.80;99.90
40758;DHT22;26462;47.384;19.218;2022-12-18T01:26:23;-0.80;99.90
40758;DHT22;26462;47.384;19.218;2022-12-18T01:28:51;-0.80;99.90
40758;DHT22;26462;47.384;19.218;2022-12-18T01:31:21;-0.80;99.90
40758;DHT22;26462;47.384;19.218;2022-12-18T01:33:50;-0.80;99.90
40758;DHT22;26462;47.384;19.218;2022-12-18T01:36:22;-0.80;99.90
40758;DHT22;26462;47.384;19.218;2022-12-18T01:38:50;-0.80;99.90
40758;DHT22;26462;47.384;19.218;2022-12-18T01:41:21;-0.80;99.90
40758;DHT22;26462;47.384;19.218;2022-12-18T01:43:54;-0.90;99.90
40758;DHT22;26462;47.384;19.218;2022-12-18T01:46:24;-0.90;99.90
40758;DHT22;26462;47.384;19.218;2022-12-18T01:49:00;-0.90;99.90
40758;DHT22;26462;47.384;19.218;2022-12-18T01:51:29;-0.90;99.90
40758;DHT22;26462;47.384;19.218;2022-12-18T01:53:59;-0.90;99.90
40758;DHT22;26462;47.384;19.218;2022-12-18T01:56:26;-0.90;99.90
40758;DHT22;26462;47.384;19.218;2022-12-18T01:59:03;-0.90;99.90
40758;DHT22;26462;47.384;19.218;2022-12-18T02:01:32;-0.90;99.90
40758;DHT22;26462;47.384;19.218;2022-12-18T02:04:33;-0.90;99.90
40758;DHT22;26462;47.384;19.218;2022-12-18T02:07:24;-0.90;99.90
40758;DHT22;26462;47.384;19.218;2022-12-18T02:10:03;-0.90;99.90
40758;DHT22;26462;47.384;19.218;2022-12-18T02:18:37;-0.90;99.90
40758;DHT22;26462;47.384;19.218;2022-12-18T02:24:18;-0.90;99.90
40758;DHT22;26462;47.384;19.218;2022-12-18T02:27:14;-0.80;99.90
40758;DHT22;26462;47.384;19.218;2022-12-18T02:29:54;-0.80;99.90
40758;DHT22;26462;47.384;19.218;2022-12-18T02:32:30;-0.80;99.90
40758;DHT22;26462;47.384;19.218;2022-12-18T02:34:59;-0.90;99.90
40758;DHT22;26462;47.384;19.218;2022-12-18T02:37:29;-0.90;99.90
40758;DHT22;26462;47.384;19.218;2022-12-18T02:40:01;-0.80;99.90
40758;DHT22;26462;47.384;19.218;2022-12-18T02:42:30;-0.90;99.90
40758;DHT22;26462;47.384;19.218;2022-12-18T02:45:00;-0.90;99.90
40758;DHT22;26462;47.384;19.218;2022-12-18T02:47:30;-0.90;99.90
40758;DHT22;26462;47.384;19.218;2022-12-18T02:50:05;-1.00;99.90
40758;DHT22;26462;47.384;19.218;2022-12-18T03:00:58;-0.90;99.90
40758;DHT22;26462;47.384;19.218;2022-12-18T03:03:46;-0.90;99.90
40758;DHT22;26462;47.384;19.218;2022-12-18T03:06:29;-1.00;99.90
40758;DHT22;26462;47.384;19.218;2022-12-18T03:09:00;-1.00;99.90
40758;DHT22;26462;47.384;19.218;2022-12-18T03:11:32;-1.00;99.90
40758;DHT22;26462;47.384;19.218;2022-12-18T03:14:20;-1.00;99.90
40758;DHT22;26462;47.384;19.218;2022-12-18T03:16:53;-1.00;99.90
40758;DHT22;26462;47.384;19.218;2022-12-18T03:19:24;-1.10;99.90
40758;DHT22;26462;47.384;19.218;2022-12-18T03:22:00;-1.10;99.90
40758;DHT22;26462;47.384;19.218;2022-12-18T03:24:37;-1.10;99.90
40758;DHT22;26462;47.384;19.218;2022-12-18T03:27:10;-1.10;99.90
40758;DHT22;26462;47.384;19.218;2022-12-18T03:29:53;-1.20;99.90
40758;DHT22;26462;47.384;19.218;2022-12-18T03:32:29;-1.10;99.90
40758;DHT22;26462;47.384;19.218;2022-12-18T03:35:03;-1.20;99.90
40758;DHT22;26462;47.384;19.218;2022-12-18T03:37:35;-1.20;99.90
40758;DHT22;26462;47.384;19.218;2022-12-18T03:40:03;-1.30;99.90
40758;DHT22;26462;47.384;19.218;2022-12-18T03:42:54;-1.30;99.90
40758;DHT22;26462;47.384;19.218;2022-12-18T03:45:31;-1.30;99.90
40758;DHT22;26462;47.384;19.218;2022-12-18T03:50:56;-1.40;99.90
40758;DHT22;26462;47.384;19.218;2022-12-18T03:56:01;-1.40;99.90
40758;DHT22;26462;47.384;19.218;2022-12-18T03:58:37;-1.40;99.90
40758;DHT22;26462;47.384;19.218;2022-12-18T04:01:40;-1.50;99.90
40758;DHT22;26462;47.384;19.218;2022-12-18T04:04:13;-1.50;99.90
40758;DHT22;26462;47.384;19.218;2022-12-18T04:06:43;-1.50;99.90
40758;DHT22;26462;47.384;19.218;2022-12-18T04:09:12;-1.50;99.90
40758;DHT22;26462;47.384;19.218;2022-12-18T04:11:43;-1.60;99.90
40758;DHT22;26462;47.384;19.218;2022-12-18T04:14:14;-1.60;99.90
40758;DHT22;26462;47.384;19.218;2022-12-18T04:16:46;-1.60;99.90
40758;DHT22;26462;47.384;19.218;2022-12-18T04:19:16;-1.60;99.90
40758;DHT22;26462;47.384;19.218;2022-12-18T04:21:46;-1.70;99.90
40758;DHT22;26462;47.384;19.218;2022-12-18T04:24:13;-1.60;99.90
40758;DHT22;26462;47.384;19.218;2022-12-18T04:26:49;-1.70;99.90
40758;DHT22;26462;47.384;19.218;2022-12-18T04:29:21;-1.70;99.90
40758;DHT22;26462;47.384;19.218;2022-12-18T04:31:48;-1.70;99.90
40758;DHT22;26462;47.384;19.218;2022-12-18T04:34:16;-1.70;99.90
40758;DHT22;26462;47.384;19.218;2022-12-18T04:36:48;-1.70;99.90
40758;DHT22;26462;47.384;19.218;2022-12-18T04:39:16;-1.80;99.90
40758;DHT22;26462;47.384;19.218;2022-12-18T04:41:44;-1.80;99.90
40758;DHT22;26462;47.384;19.218;2022-12-18T04:44:12;-1.80;99.90
40758;DHT22;26462;47.384;19.218;2022-12-18T04:46:39;-1.90;99.90
40758;DHT22;26462;47.384;19.218;2022-12-18T04:49:07;-1.90;99.90
40758;DHT22;26462;47.384;19.218;2022-12-18T04:51:34;-1.80;99.90
40758;DHT22;26462;47.384;19.218;2022-12-18T04:54:01;-1.80;99.90
40758;DHT22;26462;47.384;19.218;2022-12-18T04:56:30;-1.90;99.90
40758;DHT22;26462;47.384;19.218;2022-12-18T04:58:57;-1.90;99.90
40758;DHT22;26462;47.384;19.218;2022-12-18T05:01:24;-1.90;99.90
40758;DHT22;26462;47.384;19.218;2022-12-18T05:04:00;-1.90;99.90
40758;DHT22;26462;47.384;19.218;2022-12-18T05:06:27;-1.90;99.90
40758;DHT22;26462;47.384;19.218;2022-12-18T05:08:54;-2.00;99.90
40758;DHT22;26462;47.384;19.218;2022-12-18T05:11:21;-2.00;99.90
40758;DHT22;26462;47.384;19.218;2022-12-18T05:13:48;-2.00;99.90
40758;DHT22;26462;47.384;19.218;2022-12-18T05:16:16;-2.00;99.90
40758;DHT22;26462;47.384;19.218;2022-12-18T05:18:43;-2.00;99.90
40758;DHT22;26462;47.384;19.218;2022-12-18T05:21:10;-2.10;99.90
40758;DHT22;26462;47.384;19.218;2022-12-18T05:23:37;-2.10;99.90
40758;DHT22;26462;47.384;19.218;2022-12-18T05:26:06;-2.10;99.90
40758;DHT22;26462;47.384;19.218;2022-12-18T05:28:35;-2.10;99.90
40758;DHT22;26462;47.384;19.218;2022-12-18T05:31:04;-2.20;99.90
40758;DHT22;26462;47.384;19.218;2022-12-18T05:33:33;-2.20;99.90
40758;DHT22;26462;47.384;19.218;2022-12-18T05:36:01;-2.20;99.90
40758;DHT22;26462;47.384;19.218;2022-12-18T05:38:30;-2.30;99.90
40758;DHT22;26462;47.384;19.218;2022-12-18T05:40:57;-2.30;99.90
40758;DHT22;26462;47.384;19.218;2022-12-18T05:43:25;-2.30;99.90
40758;DHT22;26462;47.384;19.218;2022-12-18T05:45:53;-2.20;99.90
40758;DHT22;26462;47.384;19.218;2022-12-18T05:48:21;-2.30;99.90
40758;DHT22;26462;47.384;19.218;2022-12-18T05:50:49;-2.30;99.90
40758;DHT22;26462;47.384;19.218;2022-12-18T05:53:18;-2.40;99.90
40758;DHT22;26462;47.384;19.218;2022-12-18T05:55:46;-2.30;99.90
40758;DHT22;26462;47.384;19.218;2022-12-18T05:58:14;-2.40;99.90
40758;DHT22;26462;47.384;19.218;2022-12-18T06:00:44;-2.40;99.90
40758;DHT22;26462;47.384;19.218;2022-12-18T06:03:12;-2.40;99.90
40758;DHT22;26462;47.384;19.218;2022-12-18T06:05:44;-2.40;99.90
40758;DHT22;26462;47.384;19.218;2022-12-18T06:08:12;-2.50;99.90
40758;DHT22;26462;47.384;19.218;2022-12-18T06:10:40;-2.50;99.90
40758;DHT22;26462;47.384;19.218;2022-12-18T06:13:08;-2.50;99.90
40758;DHT22;26462;47.384;19.218;2022-12-18T06:15:41;-2.50;99.90
40758;DHT22;26462;47.384;19.218;2022-12-18T06:18:08;-2.50;99.90
40758;DHT22;26462;47.384;19.218;2022-12-18T06:20:35;-2.40;99.90
40758;DHT22;26462;47.384;19.218;2022-12-18T06:23:03;-2.50;99.90
40758;DHT22;26462;47.384;19.218;2022-12-18T06:25:30;-2.50;99.90
40758;DHT22;26462;47.384;19.218;2022-12-18T06:27:57;-2.40;99.90
40758;DHT22;26462;47.384;19.218;2022-12-18T06:30:24;-2.50;99.90
40758;DHT22;26462;47.384;19.218;2022-12-18T06:32:51;-2.50;99.90
40758;DHT22;26462;47.384;19.218;2022-12-18T06:35:22;-2.50;99.90
40758;DHT22;26462;47.384;19.218;2022-12-18T06:37:50;-2.60;99.90
40758;DHT22;26462;47.384;19.218;2022-12-18T06:40:18;-2.50;99.90
40758;DHT22;26462;47.384;19.218;2022-12-18T06:42:45;-2.60;99.90
40758;DHT22;26462;47.384;19.218;2022-12-18T06:45:12;-2.60;99.90
40758;DHT22;26462;47.384;19.218;2022-12-18T06:47:39;-2.60;99.90
40758;DHT22;26462;47.384;19.218;2022-12-18T06:50:07;-2.60;99.90
40758;DHT22;26462;47.384;19.218;2022-12-18T06:52:34;-2.60;99.90
40758;DHT22;26462;47.384;19.218;2022-12-18T06:55:01;-2.60;99.90
40758;DHT22;26462;47.384;19.218;2022-12-18T06:57:28;-2.60;99.90
40758;DHT22;26462;47.384;19.218;2022-12-18T06:59:55;-2.60;99.90
40758;DHT22;26462;47.384;19.218;2022-12-18T07:02:22;-2.60;99.90
40758;DHT22;26462;47.384;19.218;2022-12-18T07:04:49;-2.50;99.90
40758;DHT22;26462;47.384;19.218;2022-12-18T07:07:17;-2.60;99.90
40758;DHT22;26462;47.384;19.218;2022-12-18T07:09:44;-2.60;99.90
40758;DHT22;26462;47.384;19.218;2022-12-18T07:12:11;-2.50;99.90
40758;DHT22;26462;47.384;19.218;2022-12-18T07:14:38;-2.50;99.90
40758;DHT22;26462;47.384;19.218;2022-12-18T07:17:05;-2.50;99.90
40758;DHT22;26462;47.384;19.218;2022-12-18T07:19:33;-2.40;99.90
40758;DHT22;26462;47.384;19.218;2022-12-18T07:22:00;-2.60;99.90
40758;DHT22;26462;47.384;19.218;2022-12-18T07:24:32;-2.60;99.90
40758;DHT22;26462;47.384;19.218;2022-12-18T07:27:02;-2.60;99.90
40758;DHT22;26462;47.384;19.218;2022-12-18T07:29:33;-2.40;99.90
40758;DHT22;26462;47.384;19.218;2022-12-18T07:32:00;-2.60;99.90
40758;DHT22;26462;47.384;19.218;2022-12-18T07:34:27;-2.40;99.90
40758;DHT22;26462;47.384;19.218;2022-12-18T07:36:55;-2.30;99.90
40758;DHT22;26462;47.384;19.218;2022-12-18T07:39:22;-2.30;99.90
40758;DHT22;26462;47.384;19.218;2022-12-18T07:41:52;-2.10;99.90
40758;DHT22;26462;47.384;19.218;2022-12-18T07:44:39;-2.70;99.90
40758;DHT22;26462;47.384;19.218;2022-12-18T07:47:07;-2.20;99.90
40758;DHT22;26462;47.384;19.218;2022-12-18T07:49:38;-2.10;99.90
40758;DHT22;26462;47.384;19.218;2022-12-18T07:52:08;-1.90;99.90
40758;DHT22;26462;47.384;19.218;2022-12-18T07:54:39;-1.50;99.90
40758;DHT22;26462;47.384;19.218;2022-12-18T07:57:09;-3.10;99.90
40758;DHT22;26462;47.384;19.218;2022-12-18T07:59:57;-1.90;99.90
40758;DHT22;26462;47.384;19.218;2022-12-18T08:02:24;-1.90;99.90
40758;DHT22;26462;47.384;19.218;2022-12-18T08:04:52;-1.80;99.90
40758;DHT22;26462;47.384;19.218;2022-12-18T08:07:22;-1.80;99.90
40758;DHT22;26462;47.384;19.218;2022-12-18T08:09:49;-1.60;99.90
40758;DHT22;26462;47.384;19.218;2022-12-18T08:12:16;-1.90;99.90
40758;DHT22;26462;47.384;19.218;2022-12-18T08:14:44;-1.90;99.90
40758;DHT22;26462;47.384;19.218;2022-12-18T08:17:11;-1.80;99.90
40758;DHT22;26462;47.384;19.218;2022-12-18T08:19:39;-1.90;99.90
40758;DHT22;26462;47.384;19.218;2022-12-18T08:22:09;-1.90;99.90
40758;DHT22;26462;47.384;19.218;2022-12-18T08:24:36;-1.60;99.90
40758;DHT22;26462;47.384;19.218;2022-12-18T08:27:04;-1.60;99.90
40758;DHT22;26462;47.384;19.218;2022-12-18T08:29:51;-1.60;99.90
40758;DHT22;26462;47.384;19.218;2022-12-18T08:32:19;-1.90;99.90
40758;DHT22;26462;47.384;19.218;2022-12-18T08:34:47;-1.50;99.90
40758;DHT22;26462;47.384;19.218;2022-12-18T08:37:15;-1.10;99.90
40758;DHT22;26462;47.384;19.218;2022-12-18T08:39:43;-1.40;99.90
40758;DHT22;26462;47.384;19.218;2022-12-18T08:42:10;-1.40;99.90
40758;DHT22;26462;47.384;19.218;2022-12-18T08:44:59;-1.50;99.90
40758;DHT22;26462;47.384;19.218;2022-12-18T08:47:26;-1.30;99.90
40758;DHT22;26462;47.384;19.218;2022-12-18T08:49:54;-1.30;99.90
40758;DHT22;26462;47.384;19.218;2022-12-18T08:52:24;-1.40;99.90
40758;DHT22;26462;47.384;19.218;2022-12-18T08:54:51;-1.20;99.90
40758;DHT22;26462;47.384;19.218;2022-12-18T08:57:18;-1.10;99.90
40758;DHT22;26462;47.384;19.218;2022-12-18T08:59:46;-1.30;99.90
40758;DHT22;26462;47.384;19.218;2022-12-18T09:02:13;-1.30;99.90
40758;DHT22;26462;47.384;19.218;2022-12-18T09:04:41;-1.00;99.90
40758;DHT22;26462;47.384;19.218;2022-12-18T09:07:08;-1.00;99.90
40758;DHT22;26462;47.384;19.218;2022-12-18T09:09:36;-0.80;99.90
40758;DHT22;26462;47.384;19.218;2022-12-18T09:12:03;-0.70;99.90
40758;DHT22;26462;47.384;19.218;2022-12-18T09:14:31;-0.60;99.90
40758;DHT22;26462;47.384;19.218;2022-12-18T09:16:58;-0.90;99.90
40758;DHT22;26462;47.384;19.218;2022-12-18T09:19:28;-1.30;99.90
40758;DHT22;26462;47.384;19.218;2022-12-18T09:21:55;-0.60;99.90
40758;DHT22;26462;47.384;19.218;2022-12-18T09:24:23;-0.70;99.90
40758;DHT22;26462;47.384;19.218;2022-12-18T09:26:59;-0.60;99.90
40758;DHT22;26462;47.384;19.218;2022-12-18T09:29:27;-0.40;99.90
40758;DHT22;26462;47.384;19.218;2022-12-18T09:31:55;-0.40;99.90
40758;DHT22;26462;47.384;19.218;2022-12-18T09:34:23;-0.30;99.90
40758;DHT22;26462;47.384;19.218;2022-12-18T09:36:51;-0.30;99.90
40758;DHT22;26462;47.384;19.218;2022-12-18T09:39:18;-0.50;99.90
40758;DHT22;26462;47.384;19.218;2022-12-18T09:41:57;-0.70;99.90
40758;DHT22;26462;47.384;19.218;2022-12-18T09:44:38;-0.10;99.90
40758;DHT22;26462;47.384;19.218;2022-12-18T09:47:39;-0.20;99.90
40758;DHT22;26462;47.384;19.218;2022-12-18T09:50:34;-0.50;99.90
40758;DHT22;26462;47.384;19.218;2022-12-18T09:53:06;0.00;99.90
40758;DHT22;26462;47.384;19.218;2022-12-18T09:55:42;-0.20;99.90
40758;DHT22;26462;47.384;19.218;2022-12-18T09:58:21;0.00;99.90
40758;DHT22;26462;47.384;19.218;2022-12-18T10:00:53;0.10;99.90
40758;DHT22;26462;47.384;19.218;2022-12-18T10:03:21;0.50;99.90
40758;DHT22;26462;47.384;19.218;2022-12-18T10:10:49;0.10;99.90
40758;DHT22;26462;47.384;19.218;2022-12-18T10:22:14;0.10;99.90
40758;DHT22;26462;47.384;19.218;2022-12-18T10:24:59;0.50;99.90
40758;DHT22;26462;47.384;19.218;2022-12-18T10:27:29;0.50;99.90
40758;DHT22;26462;47.384;19.218;2022-12-18T10:30:00;0.50;99.90
40758;DHT22;26462;47.384;19.218;2022-12-18T10:32:29;0.40;99.90
40758;DHT22;26462;47.384;19.218;2022-12-18T10:34:58;0.60;99.90
40758;DHT22;26462;47.384;19.218;2022-12-18T10:37:31;0.50;99.90
40758;DHT22;26462;47.384;19.218;2022-12-18T10:40:17;0.60;99.90
40758;DHT22;26462;47.384;19.218;2022-12-18T10:43:12;0.70;99.90
40758;DHT22;26462;47.384;19.218;2022-12-18T10:46:04;0.70;99.90
40758;DHT22;26462;47.384;19.218;2022-12-18T10:51:29;0.90;99.90
40758;DHT22;26462;47.384;19.218;2022-12-18T10:54:01;0.70;99.90
40758;DHT22;26462;47.384;19.218;2022-12-18T10:56:33;0.90;99.90
40758;DHT22;26462;47.384;19.218;2022-12-18T10:59:04;0.90;99.90
40758;DHT22;26462;47.384;19.218;2022-12-18T11:01:57;0.70;99.90
40758;DHT22;26462;47.384;19.218;2022-12-18T11:04:27;1.10;99.90
40758;DHT22;26462;47.384;19.218;2022-12-18T11:07:03;1.00;99.90
40758;DHT22;26462;47.384;19.218;2022-12-18T11:09:39;1.10;99.90
40758;DHT22;26462;47.384;19.218;2022-12-18T11:15:21;1.20;99.90
40758;DHT22;26462;47.384;19.218;2022-12-18T11:17:50;1.10;98.90
40758;DHT22;26462;47.384;19.218;2022-12-18T11:20:35;1.20;98.10
40758;DHT22;26462;47.384;19.218;2022-12-18T11:23:11;1.30;98.00
40758;DHT22;26462;47.384;19.218;2022-12-18T11:25:39;0.40;97.00
40758;DHT22;26462;47.384;19.218;2022-12-18T11:28:38;1.30;97.10
40758;DHT22;26462;47.384;19.218;2022-12-18T11:31:26;1.40;97.80
40758;DHT22;26462;47.384;19.218;2022-12-18T11:34:14;1.40;97.90
40758;DHT22;26462;47.384;19.218;2022-12-18T11:37:01;1.40;97.40
40758;DHT22;26462;47.384;19.218;2022-12-18T11:39:42;1.40;97.90
40758;DHT22;26462;47.384;19.218;2022-12-18T11:42:32;1.50;99.40
40758;DHT22;26462;47.384;19.218;2022-12-18T11:47:46;1.60;99.40
40758;DHT22;26462;47.384;19.218;2022-12-18T11:50:19;1.60;99.30
40758;DHT22;26462;47.384;19.218;2022-12-18T11:52:48;1.60;98.80
40758;DHT22;26462;47.384;19.218;2022-12-18T11:56:25;1.60;99.00
40758;DHT22;26462;47.384;19.218;2022-12-18T12:02:16;1.60;98.80
40758;DHT22;26462;47.384;19.218;2022-12-18T12:13:25;1.60;97.30
40758;DHT22;26462;47.384;19.218;2022-12-18T12:21:36;1.60;96.10
40758;DHT22;26462;47.384;19.218;2022-12-18T12:39:14;1.60;98.00
40758;DHT22;26462;47.384;19.218;2022-12-18T12:42:29;1.60;98.10
40758;DHT22;26462;47.384;19.218;2022-12-18T12:48:46;1.50;98.00
40758;DHT22;26462;47.384;19.218;2022-12-18T13:11:52;1.40;98.30
40758;DHT22;26462;47.384;19.218;2022-12-18T13:37:33;1.30;98.70
40758;DHT22;26462;47.384;19.218;2022-12-18T13:39:43;1.30;98.80
40758;DHT22;26462;47.384;19.218;2022-12-18T13:48:25;1.30;99.90
40758;DHT22;26462;47.384;19.218;2022-12-18T13:51:06;1.20;99.90
40758;DHT22;26462;47.384;19.218;2022-12-18T14:08:58;1.10;99.90
40758;DHT22;26462;47.384;19.218;2022-12-18T14:11:26;1.00;99.90
40758;DHT22;26462;47.384;19.218;2022-12-18T14:13:55;1.00;99.90
40758;DHT22;26462;47.384;19.218;2022-12-18T14:16:23;0.90;99.90
40758;DHT22;26462;47.384;19.218;2022-12-18T14:18:56;0.90;99.90
40758;DHT22;26462;47.384;19.218;2022-12-18T14:21:46;0.90;99.90
40758;DHT22;26462;47.384;19.218;2022-12-18T14:24:16;0.80;99.90
40758;DHT22;26462;47.384;19.218;2022-12-18T14:26:47;0.80;99.90
40758;DHT22;26462;47.384;19.218;2022-12-18T14:29:27;0.80;99.90
40758;DHT22;26462;47.384;19.218;2022-12-18T14:32:16;0.70;99.90
40758;DHT22;26462;47.384;19.218;2022-12-18T14:34:50;0.60;99.90
40758;DHT22;26462;47.384;19.218;2022-12-18T14:37:21;0.60;99.90
40758;DHT22;26462;47.384;19.218;2022-12-18T14:40:12;0.60;99.90
40758;DHT22;26462;47.384;19.218;2022-12-18T14:42:40;0.50;99.90
40758;DHT22;26462;47.384;19.218;2022-12-18T14:45:44;0.50;99.90
40758;DHT22;26462;47.384;19.218;2022-12-18T14:51:02;0.40;99.90
40758;DHT22;26462;47.384;19.218;2022-12-18T14:53:36;0.30;99.90
40758;DHT22;26462;47.384;19.218;2022-12-18T14:58:46;0.20;99.90
40758;DHT22;26462;47.384;19.218;2022-12-18T15:01:44;0.20;99.90
40758;DHT22;26462;47.384;19.218;2022-12-18T15:04:30;0.10;99.90
40758;DHT22;26462;47.384;19.218;2022-12-18T15:09:41;0.00;99.90
40758;DHT22;26462;47.384;19.218;2022-12-18T15:12:35;0.00;99.90
40758;DHT22;26462;47.384;19.218;2022-12-18T15:15:00;0.00;99.90
40758;DHT22;26462;47.384;19.218;2022-12-18T15:17:28;-0.10;99.90
40758;DHT22;26462;47.384;19.218;2022-12-18T15:20:09;-0.10;99.90
40758;DHT22;26462;47.384;19.218;2022-12-18T15:22:38;-0.20;99.90
40758;DHT22;26462;47.384;19.218;2022-12-18T15:25:31;-0.20;99.90
40758;DHT22;26462;47.384;19.218;2022-12-18T15:27:59;-0.20;99.90
40758;DHT22;26462;47.384;19.218;2022-12-18T15:30:27;-0.30;99.90
40758;DHT22;26462;47.384;19.218;2022-12-18T15:33:22;-0.30;99.90
40758;DHT22;26462;47.384;19.218;2022-12-18T15:36:04;-0.40;99.90
40758;DHT22;26462;47.384;19.218;2022-12-18T15:38:32;-0.40;99.90
40758;DHT22;26462;47.384;19.218;2022-12-18T15:41:00;-0.40;99.90
40758;DHT22;26462;47.384;19.218;2022-12-18T15:43:37;-0.50;99.90
40758;DHT22;26462;47.384;19.218;2022-12-18T15:46:08;-0.50;99.90
40758;DHT22;26462;47.384;19.218;2022-12-18T15:48:45;-0.50;99.90
40758;DHT22;26462;47.384;19.218;2022-12-18T15:53:46;-0.60;99.90
40758;DHT22;26462;47.384;19.218;2022-12-18T15:56:16;-0.50;99.90
40758;DHT22;26462;47.384;19.218;2022-12-18T15:59:11;-0.60;99.90
40758;DHT22;26462;47.384;19.218;2022-12-18T16:01:44;-0.60;99.90
40758;DHT22;26462;47.384;19.218;2022-12-18T16:04:14;-0.60;99.90
40758;DHT22;26462;47.384;19.218;2022-12-18T16:06:44;-0.70;99.90
40758;DHT22;26462;47.384;19.218;2022-12-18T16:09:33;-0.70;99.90
40758;DHT22;26462;47.384;19.218;2022-12-18T16:12:01;-0.70;99.90
40758;DHT22;26462;47.384;19.218;2022-12-18T16:14:29;-0.80;99.90
40758;DHT22;26462;47.384;19.218;2022-12-18T16:17:09;-0.80;99.90
40758;DHT22;26462;47.384;19.218;2022-12-18T16:19:38;-0.80;99.90
40758;DHT22;26462;47.384;19.218;2022-12-18T16:22:28;-0.80;99.90
40758;DHT22;26462;47.384;19.218;2022-12-18T16:24:57;-0.80;99.90
40758;DHT22;26462;47.384;19.218;2022-12-18T16:27:25;-0.90;99.90
40758;DHT22;26462;47.384;19.218;2022-12-18T16:29:54;-0.90;99.90
40758;DHT22;26462;47.384;19.218;2022-12-18T16:32:23;-0.90;99.90
40758;DHT22;26462;47.384;19.218;2022-12-18T16:34:51;-1.00;99.90
40758;DHT22;26462;47.384;19.218;2022-12-18T16:37:22;-1.00;99.90
40758;DHT22;26462;47.384;19.218;2022-12-18T16:39:52;-1.00;99.90
40758;DHT22;26462;47.384;19.218;2022-12-18T16:42:21;-1.10;99.90
40758;DHT22;26462;47.384;19.218;2022-12-18T16:44:49;-1.10;99.90
40758;DHT22;26462;47.384;19.218;2022-12-18T16:47:20;-1.10;99.90
40758;DHT22;26462;47.384;19.218;2022-12-18T16:49:48;-1.10;99.90
40758;DHT22;26462;47.384;19.218;2022-12-18T16:52:21;-1.10;99.90
40758;DHT22;26462;47.384;19.218;2022-12-18T16:54:49;-1.10;99.90
40758;DHT22;26462;47.384;19.218;2022-12-18T16:57:19;-1.20;99.90
40758;DHT22;26462;47.384;19.218;2022-12-18T16:59:51;-1.20;99.90
40758;DHT22;26462;47.384;19.218;2022-12-18T17:02:22;-1.20;99.90
40758;DHT22;26462;47.384;19.218;2022-12-18T17:04:55;-1.20;99.90
40758;DHT22;26462;47.384;19.218;2022-12-18T17:07:26;-1.30;99.90
40758;DHT22;26462;47.384;19.218;2022-12-18T17:09:55;-1.30;99.90
40758;DHT22;26462;47.384;19.218;2022-12-18T17:12:23;-1.30;99.90
40758;DHT22;26462;47.384;19.218;2022-12-18T17:14:53;-1.40;99.90
40758;DHT22;26462;47.384;19.218;2022-12-18T17:17:21;-1.40;99.90
40758;DHT22;26462;47.384;19.218;2022-12-18T17:19:51;-1.40;99.90
40758;DHT22;26462;47.384;19.218;2022-12-18T17:22:21;-1.40;99.90
40758;DHT22;26462;47.384;19.218;2022-12-18T17:24:52;-1.40;99.90
40758;DHT22;26462;47.384;19.218;2022-12-18T17:27:20;-1.40;99.90
40758;DHT22;26462;47.384;19.218;2022-12-18T17:29:49;-1.40;99.90
40758;DHT22;26462;47.384;19.218;2022-12-18T17:32:17;-1.50;99.90
40758;DHT22;26462;47.384;19.218;2022-12-18T17:34:45;-1.50;99.90
40758;DHT22;26462;47.384;19.218;2022-12-18T17:37:14;-1.50;99.90
40758;DHT22;26462;47.384;19.218;2022-12-18T17:39:42;-1.60;99.90
40758;DHT22;26462;47.384;19.218;2022-12-18T17:42:10;-1.60;99.90
40758;DHT22;26462;47.384;19.218;2022-12-18T17:44:42;-1.60;99.90
40758;DHT22;26462;47.384;19.218;2022-12-18T17:47:12;-1.60;99.90
40758;DHT22;26462;47.384;19.218;2022-12-18T17:49:42;-1.60;99.90
40758;DHT22;26462;47.384;19.218;2022-12-18T17:52:10;-1.60;99.90
40758;DHT22;26462;47.384;19.218;2022-12-18T17:54:41;-1.70;99.90
40758;DHT22;26462;47.384;19.218;2022-12-18T17:57:09;-1.60;99.90
40758;DHT22;26462;47.384;19.218;2022-12-18T17:59:38;-1.70;99.90
40758;DHT22;26462;47.384;19.218;2022-12-18T18:02:10;-1.70;99.90
40758;DHT22;26462;47.384;19.218;2022-12-18T18:04:38;-1.70;99.90
40758;DHT22;26462;47.384;19.218;2022-12-18T18:07:07;-1.80;99.90
40758;DHT22;26462;47.384;19.218;2022-12-18T18:09:36;-1.70;99.90
40758;DHT22;26462;47.384;19.218;2022-12-18T18:12:04;-1.80;99.90
40758;DHT22;26462;47.384;19.218;2022-12-18T18:14:51;-1.80;99.90
40758;DHT22;26462;47.384;19.218;2022-12-18T18:17:20;-1.80;99.90
40758;DHT22;26462;47.384;19.218;2022-12-18T18:19:49;-1.80;99.90
40758;DHT22;26462;47.384;19.218;2022-12-18T18:22:17;-1.90;99.90
40758;DHT22;26462;47.384;19.218;2022-12-18T18:24:49;-1.90;99.90
40758;DHT22;26462;47.384;19.218;2022-12-18T18:27:17;-1.90;99.90
40758;DHT22;26462;47.384;19.218;2022-12-18T18:29:45;-2.00;99.90